Wes Sellars — WDF9302 — position and weather

sailwx.info

Track history (hours):
 
Tides and Currents Weather Stations Pressure Air Temp Water Temp Dewpoint Dewpoint Depression Visibility Wind Speed Wind Dir Waves Ship Positions

Wes Sellars

Owner: Florida Marine, LLC, Mandeville, LA. More information available from US FCC via Universal Licensing System and Coast Guard Vessel Documentation Center.

Last reported at 2014-Oct-04 12:26 UTC. Time now 2014-Oct-21 07:02 UTC.
Position N 30°11' W 091°01'.
Warning: this ship's position is 16 days out of date.

Length 27 m.

Type: Towing. MMSI: 367503760.

Date/timePositionNaut miles runAvg speedWind from/ knotsBaromVisibWave heightAir tempDewpointWater temp
2014-Oct-04 12:26N 30°11' W 091°01'0 0.0
2014-Oct-04 08:24N 30°11' W 091°01'0 0.0
2014-Oct-04 07:15N 30°11' W 091°01'0 0.0
2014-Oct-04 06:32N 30°11' W 091°01'  
2014-Sep-30 02:13N 30°08' W 091°00'7 3.2
2014-Sep-30 00:10N 30°04' W 090°54'4 5.9
2014-Sep-29 23:28N 30°02' W 090°50'11 5.1
2014-Sep-29 21:22N 30°02' W 090°38'2 1.9
2014-Sep-29 20:31N 30°02' W 090°36'1 0.6
2014-Sep-29 19:33N 30°03' W 090°36'0 0.0
2014-Sep-29 18:32N 30°03' W 090°36'0 0.0
2014-Sep-29 17:33N 30°03' W 090°36'0 0.0
2014-Sep-29 16:28N 30°03' W 090°36'0 0.0
2014-Sep-29 15:33N 30°03' W 090°36'0 0.5
2014-Sep-29 14:33N 30°03' W 090°35'0 0.4
2014-Sep-29 13:33N 30°03' W 090°36'0 0.0
2014-Sep-29 12:33N 30°03' W 090°36'0 0.0
2014-Sep-29 11:33N 30°03' W 090°36'0 0.4
2014-Sep-29 10:33N 30°03' W 090°36'1 0.6
2014-Sep-29 09:33N 30°02' W 090°36'1 0.6
2014-Sep-29 08:33N 30°03' W 090°36'0 0.0
2014-Sep-29 07:33N 30°03' W 090°36'0 0.0
2014-Sep-29 06:33N 30°03' W 090°36'0 0.0
2014-Sep-29 05:33N 30°03' W 090°36'0 0.0
2014-Sep-29 04:33N 30°03' W 090°36'0 0.0
2014-Sep-29 03:33N 30°03' W 090°36'0 0.0
2014-Sep-29 02:33N 30°03' W 090°36'0 0.0
2014-Sep-29 01:33N 30°03' W 090°36'0 0.0
2014-Sep-29 00:33N 30°03' W 090°36'0 0.0
2014-Sep-28 23:33N 30°03' W 090°36'0 0.0
2014-Sep-28 22:33N 30°03' W 090°36'0 0.0
2014-Sep-28 21:33N 30°03' W 090°36'0 0.3
2014-Sep-28 20:33N 30°03' W 090°36'0 0.4
2014-Sep-28 19:33N 30°03' W 090°36'0 0.0
2014-Sep-28 18:33N 30°03' W 090°36'0 0.4
2014-Sep-28 17:33N 30°03' W 090°36'0 0.3
2014-Sep-28 16:33N 30°03' W 090°36'0 0.3
2014-Sep-28 15:33N 30°03' W 090°36'1 0.8
2014-Sep-28 14:32N 30°02' W 090°37'1 1.4
2014-Sep-28 13:33N 30°03' W 090°35'3 3.1
2014-Sep-28 12:33N 30°03' W 090°32'5 5.4
2014-Sep-28 11:33N 29°60' W 090°27'6 6.2
2014-Sep-28 10:33N 29°56' W 090°21'37 1.8
2014-Sep-27 13:33N 29°33' W 090°55'6 5.9
2014-Sep-27 12:33N 29°37' W 090°60'6 5.7
2014-Sep-27 11:34N 29°39' W 091°06'4 4.4
2014-Sep-27 10:33N 29°41' W 091°11'4 4.1
2014-Sep-27 09:33N 29°39' W 091°15'5 5.0
2014-Sep-27 08:33N 29°38' W 091°21'5 5.1
2014-Sep-27 07:29N 29°40' W 091°27'4 4.5
2014-Sep-27 06:33N 29°42' W 091°31'5 4.9
2014-Sep-27 05:33N 29°45' W 091°35'5 5.4
2014-Sep-27 04:33N 29°46' W 091°42'  
2014-Sep-24 23:31N 29°24' W 094°49'7 7.8
2014-Sep-24 22:33N 29°31' W 094°53'8 8.1
2014-Sep-24 21:33N 29°38' W 094°58'8 7.5
2014-Sep-24 20:33N 29°44' W 095°03'4 3.6
2014-Sep-24 19:33N 29°47' W 095°04'0 0.1
2014-Sep-24 18:33N 29°47' W 095°04'0 0.0
2014-Sep-24 17:33N 29°47' W 095°04'0 0.0
2014-Sep-24 16:33N 29°47' W 095°04'2 2.1
2014-Sep-24 15:29N 29°46' W 095°06'0 0.0
2014-Sep-24 14:19N 29°46' W 095°06'0 0.0
2014-Sep-24 13:30N 29°46' W 095°06'0 0.0
2014-Sep-24 12:33N 29°46' W 095°06'  
Track history (hours):
 
Tides and Currents Weather Stations Pressure Air Temp Water Temp Dewpoint Dewpoint Depression Visibility Wind Speed Wind Dir Waves Ship Positions

Wes Sellars

Owner: Florida Marine, LLC, Mandeville, LA. More information available from US FCC via Universal Licensing System and Coast Guard Vessel Documentation Center.

Last reported at 2014-Oct-04 12:26 UTC. Time now 2014-Oct-21 07:02 UTC.
Position N 30°11' W 091°01'.
Warning: this ship's position is 16 days out of date.

Length 27 m.

Type: Towing. MMSI: 367503760.

Date/timePositionNaut miles runAvg speedWind from/ knotsBaromVisibWave heightAir tempDewpointWater temp
2014-Oct-04 12:26N 30°11' W 091°01'0 0.0
2014-Oct-04 08:24N 30°11' W 091°01'0 0.0
2014-Oct-04 07:15N 30°11' W 091°01'0 0.0
2014-Oct-04 06:32N 30°11' W 091°01'  
2014-Sep-30 02:13N 30°08' W 091°00'7 3.2
2014-Sep-30 00:10N 30°04' W 090°54'4 5.9
2014-Sep-29 23:28N 30°02' W 090°50'11 5.1
2014-Sep-29 21:22N 30°02' W 090°38'2 1.9
2014-Sep-29 20:31N 30°02' W 090°36'1 0.6
2014-Sep-29 19:33N 30°03' W 090°36'0 0.0
2014-Sep-29 18:32N 30°03' W 090°36'0 0.0
2014-Sep-29 17:33N 30°03' W 090°36'0 0.0
2014-Sep-29 16:28N 30°03' W 090°36'0 0.0
2014-Sep-29 15:33N 30°03' W 090°36'0 0.5
2014-Sep-29 14:33N 30°03' W 090°35'0 0.4
2014-Sep-29 13:33N 30°03' W 090°36'0 0.0
2014-Sep-29 12:33N 30°03' W 090°36'0 0.0
2014-Sep-29 11:33N 30°03' W 090°36'0 0.4
2014-Sep-29 10:33N 30°03' W 090°36'1 0.6
2014-Sep-29 09:33N 30°02' W 090°36'1 0.6
2014-Sep-29 08:33N 30°03' W 090°36'0 0.0
2014-Sep-29 07:33N 30°03' W 090°36'0 0.0
2014-Sep-29 06:33N 30°03' W 090°36'0 0.0
2014-Sep-29 05:33N 30°03' W 090°36'0 0.0
2014-Sep-29 04:33N 30°03' W 090°36'0 0.0
2014-Sep-29 03:33N 30°03' W 090°36'0 0.0
2014-Sep-29 02:33N 30°03' W 090°36'0 0.0
2014-Sep-29 01:33N 30°03' W 090°36'0 0.0
2014-Sep-29 00:33N 30°03' W 090°36'0 0.0
2014-Sep-28 23:33N 30°03' W 090°36'0 0.0
2014-Sep-28 22:33N 30°03' W 090°36'0 0.0
2014-Sep-28 21:33N 30°03' W 090°36'0 0.3
2014-Sep-28 20:33N 30°03' W 090°36'0 0.4
2014-Sep-28 19:33N 30°03' W 090°36'0 0.0
2014-Sep-28 18:33N 30°03' W 090°36'0 0.4
2014-Sep-28 17:33N 30°03' W 090°36'0 0.3
2014-Sep-28 16:33N 30°03' W 090°36'0 0.3
2014-Sep-28 15:33N 30°03' W 090°36'1 0.8
2014-Sep-28 14:32N 30°02' W 090°37'1 1.4
2014-Sep-28 13:33N 30°03' W 090°35'3 3.1
2014-Sep-28 12:33N 30°03' W 090°32'5 5.4
2014-Sep-28 11:33N 29°60' W 090°27'6 6.2
2014-Sep-28 10:33N 29°56' W 090°21'37 1.8
2014-Sep-27 13:33N 29°33' W 090°55'6 5.9
2014-Sep-27 12:33N 29°37' W 090°60'6 5.7
2014-Sep-27 11:34N 29°39' W 091°06'4 4.4
2014-Sep-27 10:33N 29°41' W 091°11'4 4.1
2014-Sep-27 09:33N 29°39' W 091°15'5 5.0
2014-Sep-27 08:33N 29°38' W 091°21'5 5.1
2014-Sep-27 07:29N 29°40' W 091°27'4 4.5
2014-Sep-27 06:33N 29°42' W 091°31'5 4.9
2014-Sep-27 05:33N 29°45' W 091°35'5 5.4
2014-Sep-27 04:33N 29°46' W 091°42'  
2014-Sep-24 23:31N 29°24' W 094°49'7 7.8
2014-Sep-24 22:33N 29°31' W 094°53'8 8.1
2014-Sep-24 21:33N 29°38' W 094°58'8 7.5
2014-Sep-24 20:33N 29°44' W 095°03'4 3.6
2014-Sep-24 19:33N 29°47' W 095°04'0 0.1
2014-Sep-24 18:33N 29°47' W 095°04'0 0.0
2014-Sep-24 17:33N 29°47' W 095°04'0 0.0
2014-Sep-24 16:33N 29°47' W 095°04'2 2.1
2014-Sep-24 15:29N 29°46' W 095°06'0 0.0
2014-Sep-24 14:19N 29°46' W 095°06'0 0.0
2014-Sep-24 13:30N 29°46' W 095°06'0 0.0
2014-Sep-24 12:33N 29°46' W 095°06'  

Dump ship's entire track history